Support us
Login | Signup

Popular TAGs: 2016 2015 2014 2013 720p 1080p m1080p XviD x264 x265 3D DVDrip BDrip MKV 320kbps

Show only:                                            

Search results for "2015"

Sort by: Date | Name | Seeders | Leechers | Comments

04-11-2016 Torrent Decades/Failures 2015 Goodby3 86.35 MB 0 2
04-11-2016 Torrent Stormhold 2015 Battle Of The Royal Halls 127.2 MB 0 0
04-11-2016 Torrent Max Guld 2015 For Enden Af Corridoren 90.75 MB 0 0
04-11-2016 Torrent Alice Cooper 2015 Live Poison 190.89 MB 4 0
04-11-2016 Torrent Worldview 2015 The Chosen Few 118.26 MB 0 0
04-11-2016 Torrent The Voltage Collective 2015 Edge Of Sanity 94.34 MB 1 0
04-11-2016 Torrent VA 2015 Boogie Nights 160.92 MB 1 0
04-11-2016 Torrent Taylor's Code 2015 Mirrors 135.08 MB 0 1
04-11-2016 Torrent Kinetic Element 2015 Travelog 160.65 MB 0 1
04-11-2016 Torrent Sanni 2015 Lelu 91.14 MB 0 1
04-11-2016 Torrent Heather Nova 2015 The Way It Feels 135.32 MB 0 0
04-11-2016 Torrent Thomas Christ 2015 Apille 122.95 MB 0 1
03-11-2016 Torrent Stevie Stone 2015 Malta Bend 145.01 MB 0 0
03-11-2016 Torrent Cortex Complex 2015 The Final Great Awakening 78.28 MB 0 2
03-11-2016 Torrent Trinity River Band 2015 Heartstrings 103.56 MB 1 1
03-11-2016 Torrent Victor Wainwright & The Wildroots 2015 Boom Town 101.36 MB 0 0
03-11-2016 Torrent VA 2015 Huk Edm Selection Vol 3 109.71 MB 1 0
03-11-2016 Torrent Reform The Resistance 2015 DOS 126.87 MB 0 0
03-11-2016 Torrent All The Cold 2015 Manvantara 126.34 MB 0 2
03-11-2016 Torrent Rico Richie 2015 Realest Story Ever Told 116.35 MB 0 0
03-11-2016 Torrent Breaking Orbit 2015 Transcension 122.2 MB 1 0
03-11-2016 Torrent Guardians Of Time 2015 Rage And Fire 113.56 MB 1 0
03-11-2016 Torrent VA 2015 Eurodance Hot Club Trax 191.17 MB 3 0
03-11-2016 Torrent Dygitals 2015 Dynamite 95.68 MB 0 0
03-11-2016 Torrent Sirenia 2015 The Seventh Life Path 178.79 MB 0 0
03-11-2016 Torrent Tony Rondini 2015 No Use For The Blues 119.9 MB 0 1
03-11-2016 Torrent Barry Levenson 2015 The Visit 137.88 MB 0 0
03-11-2016 Torrent Ao Logics 2015 Hell Is Empty 99.8 MB 0 0
03-11-2016 Torrent Forces United 2015 III 89 MB 2 0
03-11-2016 Torrent Chris Brown 2015 Liquor 138.47 MB 5 0
03-11-2016 Torrent Silje Nergaard 2015 Chain Of Days 103.76 MB 1 0
03-11-2016 Torrent Magic Pie 2015 King For A Day 160.91 MB 1 1
03-11-2016 Torrent Omen 2015 Elephant Eyes 103.26 MB 1 0
03-11-2016 Torrent LR & Puce Mary 2015 The Female Form 84.98 MB 0 0
03-11-2016 Torrent A Light Divided 2015 Mirrors 99.28 MB 0 0
 «  1 2 3 4 5 6 7 8 9 10 11 12 13 ... 128 129 130 131 132  »
  Movie/Films     Animation/Cartoons     TV Shows/Series     Music     Games     Applications     Books     Other  

   How works MfT    Rules    Suggest idea    Request torrent    Privacy Policy    DMCA    Contacts    MfT Status    Friends sites    Is this site safe?   

mkv, HD-Rip , BD-Rip , Blu-Ray , HD Film , hd film , hd films , scarica film gratis , hd torrents , hd torrent , hdtorrents, hdrip , bdrip , Bluray ,

Blu-Ray player, scarica film , scarica torrent , torrent film , film ita, bluray, mux, 1080p, 720p, hdtorrents, torrent ita, torrents ita, HD film ita, HD ita, Blu-Ray ita